Overview Statistics Trail Chart Weather Telemetry Raw packets
 

This is the latest recevied weather packets stored in our database for station/object LKCS. If no packets are shown the sender has not sent any weather packets the latest 10 day(s).

<< 5 6 7 8 9 10 11 >>
Time Temp. Humidity Pressure Rain* Wind** Luminosity Snow
1788523369 27.22° C 44% 1017 hPa - - - -
1788521585 26.11° C 47% 1017 hPa - - - -
1788519774 26.11° C 47% 1017 hPa - - - -
1788517965 26.11° C 50% 1018 hPa - - - -
1788516162 26.11° C 50% 1018 hPa - - - -
1788514385 23.89° C 57% 1019 hPa - - - -
1788512569 22.78° C 60% 1019 hPa - - - -
1788510786 22.78° C 60% 1019 hPa - - - -
1788508961 22.78° C 60% 1019 hPa - - - -
1788508386 22.78° C 56% 1019 hPa - - - -
1788507186 21.11° C 64% 1019 hPa - - - -
1788505368 20° C 68% 1020 hPa - - - -
1788503585 18.89° C 72% 1020 hPa - - - -
1788501802 18.89° C 72% 1020 hPa - - - -
1788499999 17.78° C 72% 1020 hPa - - - -
1788498159 17.22° C 77% 1019 hPa - - - -
1788496385 17.22° C 77% 1019 hPa - - - -
1788494587 17.22° C 77% 1020 hPa - - - -
1788492785 17.22° C 77% 1020 hPa - - - -
1788490985 16.11° C 77% 1020 hPa - - - -
1788489151 17.22° C 77% 1020 hPa - - - -
1788487386 18.89° C 63% 1020 hPa - - - -
1788485550 18.89° C 68% 1020 hPa - - - -
1788483788 20° C 60% 1020 hPa - - - -
1788481951 18.89° C 68% 1020 hPa - - - -

* Rain since midnight (hover to see other rain measurements)
** Current wind speed in m/s (hover to see current wind gust speed)